sensor_id;sensor_type;location;lat;lon;timestamp;P1;durP1;ratioP1;P2;durP2;ratioP2
61640;SDS011;62201;49.966;8.342;2022-10-16T00:00:34;5.70;;;1.98;;
61640;SDS011;62201;49.966;8.342;2022-10-16T00:03:01;3.15;;;2.47;;
61640;SDS011;62201;49.966;8.342;2022-10-16T00:05:28;3.63;;;1.65;;
61640;SDS011;62201;49.966;8.342;2022-10-16T00:07:54;4.13;;;1.63;;
61640;SDS011;62201;49.966;8.342;2022-10-16T00:10:19;3.33;;;1.70;;
61640;SDS011;62201;49.966;8.342;2022-10-16T00:12:44;3.13;;;1.52;;
61640;SDS011;62201;49.966;8.342;2022-10-16T00:15:10;3.75;;;1.90;;
61640;SDS011;62201;49.966;8.342;2022-10-16T00:17:36;5.00;;;2.05;;
61640;SDS011;62201;49.966;8.342;2022-10-16T00:20:01;4.68;;;1.70;;
61640;SDS011;62201;49.966;8.342;2022-10-16T00:22:27;6.38;;;1.70;;
61640;SDS011;62201;49.966;8.342;2022-10-16T00:24:53;3.70;;;2.00;;
61640;SDS011;62201;49.966;8.342;2022-10-16T00:27:18;6.10;;;1.70;;
61640;SDS011;62201;49.966;8.342;2022-10-16T00:29:43;5.30;;;2.10;;
61640;SDS011;62201;49.966;8.342;2022-10-16T00:32:09;5.10;;;2.08;;
61640;SDS011;62201;49.966;8.342;2022-10-16T00:34:34;3.40;;;2.13;;
61640;SDS011;62201;49.966;8.342;2022-10-16T00:37:00;6.53;;;2.30;;
61640;SDS011;62201;49.966;8.342;2022-10-16T00:39:25;5.43;;;2.33;;
61640;SDS011;62201;49.966;8.342;2022-10-16T00:41:51;4.35;;;2.35;;
61640;SDS011;62201;49.966;8.342;2022-10-16T00:47:22;4.68;;;1.95;;
61640;SDS011;62201;49.966;8.342;2022-10-16T00:50:01;3.55;;;2.58;;
61640;SDS011;62201;49.966;8.342;2022-10-16T00:52:30;8.60;;;3.05;;
61640;SDS011;62201;49.966;8.342;2022-10-16T00:54:56;7.40;;;2.90;;
61640;SDS011;62201;49.966;8.342;2022-10-16T00:57:23;7.05;;;2.83;;
61640;SDS011;62201;49.966;8.342;2022-10-16T00:59:50;4.38;;;2.80;;
61640;SDS011;62201;49.966;8.342;2022-10-16T01:02:16;7.07;;;3.20;;
61640;SDS011;62201;49.966;8.342;2022-10-16T01:04:46;5.43;;;2.83;;
61640;SDS011;62201;49.966;8.342;2022-10-16T01:07:16;5.70;;;2.97;;
61640;SDS011;62201;49.966;8.342;2022-10-16T01:15:18;4.32;;;3.13;;
61640;SDS011;62201;49.966;8.342;2022-10-16T01:18:11;6.25;;;3.60;;
61640;SDS011;62201;49.966;8.342;2022-10-16T01:28:52;12.00;;;5.15;;
61640;SDS011;62201;49.966;8.342;2022-10-16T01:31:23;8.00;;;5.85;;
61640;SDS011;62201;49.966;8.342;2022-10-16T01:33:56;11.52;;;5.00;;
61640;SDS011;62201;49.966;8.342;2022-10-16T01:37:14;9.80;;;5.45;;
61640;SDS011;62201;49.966;8.342;2022-10-16T01:39:28;10.90;;;5.03;;
61640;SDS011;62201;49.966;8.342;2022-10-16T01:42:01;7.68;;;4.28;;
61640;SDS011;62201;49.966;8.342;2022-10-16T01:44:36;11.65;;;6.75;;
61640;SDS011;62201;49.966;8.342;2022-10-16T01:47:03;9.40;;;6.03;;
61640;SDS011;62201;49.966;8.342;2022-10-16T01:49:31;10.38;;;5.47;;
61640;SDS011;62201;49.966;8.342;2022-10-16T01:52:02;9.93;;;6.45;;
61640;SDS011;62201;49.966;8.342;2022-10-16T01:54:33;11.57;;;5.30;;
61640;SDS011;62201;49.966;8.342;2022-10-16T01:57:02;8.57;;;5.10;;
61640;SDS011;62201;49.966;8.342;2022-10-16T01:59:31;7.75;;;5.10;;
61640;SDS011;62201;49.966;8.342;2022-10-16T02:02:01;9.02;;;5.05;;
61640;SDS011;62201;49.966;8.342;2022-10-16T02:04:36;11.88;;;5.57;;
61640;SDS011;62201;49.966;8.342;2022-10-16T02:07:04;7.38;;;4.38;;
61640;SDS011;62201;49.966;8.342;2022-10-16T02:09:31;9.55;;;4.82;;
61640;SDS011;62201;49.966;8.342;2022-10-16T02:11:58;6.65;;;4.03;;
61640;SDS011;62201;49.966;8.342;2022-10-16T02:14:27;7.90;;;4.20;;
61640;SDS011;62201;49.966;8.342;2022-10-16T02:16:53;7.25;;;3.50;;
61640;SDS011;62201;49.966;8.342;2022-10-16T02:19:19;8.27;;;3.83;;
61640;SDS011;62201;49.966;8.342;2022-10-16T02:21:50;8.43;;;4.30;;
61640;SDS011;62201;49.966;8.342;2022-10-16T02:24:23;10.68;;;4.68;;
61640;SDS011;62201;49.966;8.342;2022-10-16T02:27:10;6.65;;;4.70;;
61640;SDS011;62201;49.966;8.342;2022-10-16T02:29:39;6.60;;;4.72;;
61640;SDS011;62201;49.966;8.342;2022-10-16T02:32:10;6.35;;;4.00;;
61640;SDS011;62201;49.966;8.342;2022-10-16T02:34:38;9.82;;;4.57;;
61640;SDS011;62201;49.966;8.342;2022-10-16T02:37:05;6.95;;;4.43;;
61640;SDS011;62201;49.966;8.342;2022-10-16T02:39:31;10.55;;;4.57;;
61640;SDS011;62201;49.966;8.342;2022-10-16T02:41:58;6.82;;;4.30;;
61640;SDS011;62201;49.966;8.342;2022-10-16T02:44:24;4.35;;;3.55;;
61640;SDS011;62201;49.966;8.342;2022-10-16T02:46:49;5.80;;;3.20;;
61640;SDS011;62201;49.966;8.342;2022-10-16T02:49:14;4.32;;;2.90;;
61640;SDS011;62201;49.966;8.342;2022-10-16T02:51:40;4.47;;;3.13;;
61640;SDS011;62201;49.966;8.342;2022-10-16T02:54:05;4.28;;;3.10;;
61640;SDS011;62201;49.966;8.342;2022-10-16T02:56:31;3.72;;;2.55;;
61640;SDS011;62201;49.966;8.342;2022-10-16T02:58:56;4.57;;;3.30;;
61640;SDS011;62201;49.966;8.342;2022-10-16T03:01:22;3.65;;;2.70;;
61640;SDS011;62201;49.966;8.342;2022-10-16T03:03:48;4.55;;;2.40;;
61640;SDS011;62201;49.966;8.342;2022-10-16T03:06:14;3.20;;;2.58;;
61640;SDS011;62201;49.966;8.342;2022-10-16T03:08:39;6.45;;;2.78;;
61640;SDS011;62201;49.966;8.342;2022-10-16T03:11:04;4.05;;;2.15;;
61640;SDS011;62201;49.966;8.342;2022-10-16T03:13:30;3.72;;;2.60;;
61640;SDS011;62201;49.966;8.342;2022-10-16T03:15:55;4.55;;;2.20;;
61640;SDS011;62201;49.966;8.342;2022-10-16T03:18:20;5.10;;;1.88;;
61640;SDS011;62201;49.966;8.342;2022-10-16T03:20:46;5.25;;;1.70;;
61640;SDS011;62201;49.966;8.342;2022-10-16T03:23:11;2.45;;;1.85;;
61640;SDS011;62201;49.966;8.342;2022-10-16T03:25:37;2.42;;;1.83;;
61640;SDS011;62201;49.966;8.342;2022-10-16T03:28:02;4.05;;;1.80;;
61640;SDS011;62201;49.966;8.342;2022-10-16T03:30:28;4.95;;;1.73;;
61640;SDS011;62201;49.966;8.342;2022-10-16T03:32:54;3.55;;;1.58;;
61640;SDS011;62201;49.966;8.342;2022-10-16T03:35:20;3.35;;;1.50;;
61640;SDS011;62201;49.966;8.342;2022-10-16T03:37:46;3.08;;;1.40;;
61640;SDS011;62201;49.966;8.342;2022-10-16T03:40:11;4.22;;;1.40;;
61640;SDS011;62201;49.966;8.342;2022-10-16T03:42:37;4.20;;;1.70;;
61640;SDS011;62201;49.966;8.342;2022-10-16T03:45:02;2.15;;;1.30;;
61640;SDS011;62201;49.966;8.342;2022-10-16T03:47:28;2.58;;;1.30;;
61640;SDS011;62201;49.966;8.342;2022-10-16T03:52:23;5.22;;;1.92;;
61640;SDS011;62201;49.966;8.342;2022-10-16T03:54:48;4.88;;;2.15;;
61640;SDS011;62201;49.966;8.342;2022-10-16T03:57:13;5.45;;;1.90;;
61640;SDS011;62201;49.966;8.342;2022-10-16T03:59:39;5.07;;;2.00;;
61640;SDS011;62201;49.966;8.342;2022-10-16T04:02:05;5.75;;;2.10;;
61640;SDS011;62201;49.966;8.342;2022-10-16T04:04:30;1.98;;;1.80;;
61640;SDS011;62201;49.966;8.342;2022-10-16T04:06:56;4.63;;;2.13;;
61640;SDS011;62201;49.966;8.342;2022-10-16T04:09:21;6.35;;;2.35;;
61640;SDS011;62201;49.966;8.342;2022-10-16T04:11:46;5.65;;;2.00;;
61640;SDS011;62201;49.966;8.342;2022-10-16T04:14:12;4.85;;;2.03;;
61640;SDS011;62201;49.966;8.342;2022-10-16T04:16:37;2.38;;;1.75;;
61640;SDS011;62201;49.966;8.342;2022-10-16T04:19:03;3.22;;;1.50;;
61640;SDS011;62201;49.966;8.342;2022-10-16T04:21:31;3.72;;;1.40;;
61640;SDS011;62201;49.966;8.342;2022-10-16T04:23:57;3.85;;;1.40;;
61640;SDS011;62201;49.966;8.342;2022-10-16T04:26:22;2.30;;;1.30;;
61640;SDS011;62201;49.966;8.342;2022-10-16T04:28:48;1.80;;;1.20;;
61640;SDS011;62201;49.966;8.342;2022-10-16T04:31:13;3.85;;;1.20;;
61640;SDS011;62201;49.966;8.342;2022-10-16T04:33:41;2.80;;;0.90;;
61640;SDS011;62201;49.966;8.342;2022-10-16T04:36:08;1.30;;;0.90;;
61640;SDS011;62201;49.966;8.342;2022-10-16T04:38:33;2.40;;;0.80;;
61640;SDS011;62201;49.966;8.342;2022-10-16T04:40:59;4.60;;;1.08;;
61640;SDS011;62201;49.966;8.342;2022-10-16T04:43:24;2.55;;;0.68;;
61640;SDS011;62201;49.966;8.342;2022-10-16T04:45:50;2.60;;;1.10;;
61640;SDS011;62201;49.966;8.342;2022-10-16T04:48:16;2.97;;;1.08;;
61640;SDS011;62201;49.966;8.342;2022-10-16T04:50:42;6.72;;;0.82;;
61640;SDS011;62201;49.966;8.342;2022-10-16T04:53:07;3.55;;;1.42;;
61640;SDS011;62201;49.966;8.342;2022-10-16T04:55:33;1.83;;;1.20;;
61640;SDS011;62201;49.966;8.342;2022-10-16T04:57:59;1.98;;;1.30;;
61640;SDS011;62201;49.966;8.342;2022-10-16T05:00:24;6.28;;;1.58;;
61640;SDS011;62201;49.966;8.342;2022-10-16T05:02:50;1.67;;;1.23;;
61640;SDS011;62201;49.966;8.342;2022-10-16T05:05:16;3.03;;;1.27;;
61640;SDS011;62201;49.966;8.342;2022-10-16T05:07:43;2.78;;;1.00;;
61640;SDS011;62201;49.966;8.342;2022-10-16T05:10:09;4.28;;;1.20;;
61640;SDS011;62201;49.966;8.342;2022-10-16T05:12:34;3.45;;;1.02;;
61640;SDS011;62201;49.966;8.342;2022-10-16T05:15:00;3.72;;;1.13;;
61640;SDS011;62201;49.966;8.342;2022-10-16T05:17:25;3.20;;;1.20;;
61640;SDS011;62201;49.966;8.342;2022-10-16T05:19:51;3.05;;;1.25;;
61640;SDS011;62201;49.966;8.342;2022-10-16T05:22:17;6.82;;;1.40;;
61640;SDS011;62201;49.966;8.342;2022-10-16T05:24:42;4.50;;;1.70;;
61640;SDS011;62201;49.966;8.342;2022-10-16T05:27:07;5.45;;;1.40;;
61640;SDS011;62201;49.966;8.342;2022-10-16T05:29:33;2.42;;;1.20;;
61640;SDS011;62201;49.966;8.342;2022-10-16T05:31:58;2.20;;;1.20;;
61640;SDS011;62201;49.966;8.342;2022-10-16T05:34:24;2.97;;;1.33;;
61640;SDS011;62201;49.966;8.342;2022-10-16T05:36:49;3.47;;;1.60;;
61640;SDS011;62201;49.966;8.342;2022-10-16T05:39:15;6.10;;;1.90;;
61640;SDS011;62201;49.966;8.342;2022-10-16T05:41:41;5.30;;;1.45;;
61640;SDS011;62201;49.966;8.342;2022-10-16T05:44:06;3.55;;;1.63;;
61640;SDS011;62201;49.966;8.342;2022-10-16T05:46:32;2.50;;;1.40;;
61640;SDS011;62201;49.966;8.342;2022-10-16T05:48:58;6.60;;;1.52;;
61640;SDS011;62201;49.966;8.342;2022-10-16T05:51:23;4.82;;;1.50;;
61640;SDS011;62201;49.966;8.342;2022-10-16T05:53:49;2.47;;;1.60;;
61640;SDS011;62201;49.966;8.342;2022-10-16T05:56:14;4.07;;;1.52;;
61640;SDS011;62201;49.966;8.342;2022-10-16T05:58:40;2.63;;;1.40;;
61640;SDS011;62201;49.966;8.342;2022-10-16T06:01:09;2.25;;;1.63;;
61640;SDS011;62201;49.966;8.342;2022-10-16T06:03:37;5.25;;;1.50;;
61640;SDS011;62201;49.966;8.342;2022-10-16T06:06:10;5.65;;;1.80;;
61640;SDS011;62201;49.966;8.342;2022-10-16T06:08:38;6.57;;;1.58;;
61640;SDS011;62201;49.966;8.342;2022-10-16T06:11:04;3.58;;;1.88;;
61640;SDS011;62201;49.966;8.342;2022-10-16T06:13:31;3.90;;;1.42;;
61640;SDS011;62201;49.966;8.342;2022-10-16T06:15:57;4.97;;;1.80;;
61640;SDS011;62201;49.966;8.342;2022-10-16T06:18:25;1.88;;;1.52;;
61640;SDS011;62201;49.966;8.342;2022-10-16T06:20:51;2.45;;;1.50;;
61640;SDS011;62201;49.966;8.342;2022-10-16T06:23:17;4.75;;;1.60;;
61640;SDS011;62201;49.966;8.342;2022-10-16T06:25:42;2.13;;;1.50;;
61640;SDS011;62201;49.966;8.342;2022-10-16T06:28:08;2.70;;;1.40;;
61640;SDS011;62201;49.966;8.342;2022-10-16T06:30:33;4.38;;;1.63;;
61640;SDS011;62201;49.966;8.342;2022-10-16T06:32:58;2.85;;;1.38;;
61640;SDS011;62201;49.966;8.342;2022-10-16T06:35:24;4.28;;;1.50;;
61640;SDS011;62201;49.966;8.342;2022-10-16T06:37:55;3.80;;;1.80;;
61640;SDS011;62201;49.966;8.342;2022-10-16T06:43:59;7.78;;;1.60;;
61640;SDS011;62201;49.966;8.342;2022-10-16T06:46:51;5.25;;;1.58;;
61640;SDS011;62201;49.966;8.342;2022-10-16T07:00:05;4.53;;;2.22;;
61640;SDS011;62201;49.966;8.342;2022-10-16T07:03:03;4.70;;;1.95;;
61640;SDS011;62201;49.966;8.342;2022-10-16T07:18:31;3.40;;;2.40;;
61640;SDS011;62201;49.966;8.342;2022-10-16T07:21:03;5.85;;;2.47;;
61640;SDS011;62201;49.966;8.342;2022-10-16T07:24:55;3.97;;;2.25;;
61640;SDS011;62201;49.966;8.342;2022-10-16T07:27:18;2.55;;;2.10;;
61640;SDS011;62201;49.966;8.342;2022-10-16T07:36:25;3.90;;;3.00;;
61640;SDS011;62201;49.966;8.342;2022-10-16T07:46:25;6.20;;;2.97;;
61640;SDS011;62201;49.966;8.342;2022-10-16T07:56:21;5.85;;;3.20;;
61640;SDS011;62201;49.966;8.342;2022-10-16T07:59:47;5.70;;;2.78;;
61640;SDS011;62201;49.966;8.342;2022-10-16T08:02:39;4.75;;;2.90;;
61640;SDS011;62201;49.966;8.342;2022-10-16T08:09:04;7.03;;;3.15;;
61640;SDS011;62201;49.966;8.342;2022-10-16T08:15:39;4.28;;;2.60;;
61640;SDS011;62201;49.966;8.342;2022-10-16T08:21:46;4.70;;;2.10;;
61640;SDS011;62201;49.966;8.342;2022-10-16T08:35:12;8.45;;;2.40;;
61640;SDS011;62201;49.966;8.342;2022-10-16T08:51:11;7.20;;;2.03;;
61640;SDS011;62201;49.966;8.342;2022-10-16T08:54:31;8.05;;;2.10;;
61640;SDS011;62201;49.966;8.342;2022-10-16T08:57:23;7.13;;;2.00;;
61640;SDS011;62201;49.966;8.342;2022-10-16T09:00:05;7.50;;;1.80;;
61640;SDS011;62201;49.966;8.342;2022-10-16T09:06:15;7.13;;;2.10;;
61640;SDS011;62201;49.966;8.342;2022-10-16T09:15:17;7.50;;;2.85;;
61640;SDS011;62201;49.966;8.342;2022-10-16T09:18:37;15.82;;;3.08;;
61640;SDS011;62201;49.966;8.342;2022-10-16T09:25:11;6.15;;;3.40;;
61640;SDS011;62201;49.966;8.342;2022-10-16T09:27:45;6.43;;;4.30;;
61640;SDS011;62201;49.966;8.342;2022-10-16T09:30:34;8.57;;;6.10;;
61640;SDS011;62201;49.966;8.342;2022-10-16T09:33:23;6.97;;;4.47;;
61640;SDS011;62201;49.966;8.342;2022-10-16T09:36:09;4.47;;;2.95;;
61640;SDS011;62201;49.966;8.342;2022-10-16T09:38:36;6.93;;;3.05;;
61640;SDS011;62201;49.966;8.342;2022-10-16T09:41:13;4.88;;;3.10;;
61640;SDS011;62201;49.966;8.342;2022-10-16T09:43:54;8.90;;;3.65;;
61640;SDS011;62201;49.966;8.342;2022-10-16T09:46:24;8.02;;;4.38;;
61640;SDS011;62201;49.966;8.342;2022-10-16T09:48:50;8.93;;;4.30;;
61640;SDS011;62201;49.966;8.342;2022-10-16T09:51:19;9.70;;;5.35;;
61640;SDS011;62201;49.966;8.342;2022-10-16T09:53:48;8.32;;;4.28;;
61640;SDS011;62201;49.966;8.342;2022-10-16T09:56:23;6.78;;;4.10;;
61640;SDS011;62201;49.966;8.342;2022-10-16T09:58:58;7.20;;;3.70;;
61640;SDS011;62201;49.966;8.342;2022-10-16T10:01:40;6.18;;;3.22;;
61640;SDS011;62201;49.966;8.342;2022-10-16T10:04:14;7.40;;;3.28;;
61640;SDS011;62201;49.966;8.342;2022-10-16T10:06:41;6.68;;;3.00;;
61640;SDS011;62201;49.966;8.342;2022-10-16T10:11:49;4.10;;;2.45;;
61640;SDS011;62201;49.966;8.342;2022-10-16T10:14:32;7.25;;;3.20;;
61640;SDS011;62201;49.966;8.342;2022-10-16T10:17:16;5.22;;;2.25;;
61640;SDS011;62201;49.966;8.342;2022-10-16T10:19:48;4.45;;;2.42;;
61640;SDS011;62201;49.966;8.342;2022-10-16T10:27:40;4.47;;;1.52;;
61640;SDS011;62201;49.966;8.342;2022-10-16T10:30:40;5.30;;;2.03;;
61640;SDS011;62201;49.966;8.342;2022-10-16T10:36:12;7.78;;;2.30;;
61640;SDS011;62201;49.966;8.342;2022-10-16T10:38:49;5.38;;;2.67;;
61640;SDS011;62201;49.966;8.342;2022-10-16T10:41:25;5.47;;;2.00;;
61640;SDS011;62201;49.966;8.342;2022-10-16T10:46:54;6.43;;;2.80;;
61640;SDS011;62201;49.966;8.342;2022-10-16T10:49:26;3.90;;;1.60;;
61640;SDS011;62201;49.966;8.342;2022-10-16T10:54:48;3.35;;;1.48;;
61640;SDS011;62201;49.966;8.342;2022-10-16T10:57:29;8.25;;;2.03;;
61640;SDS011;62201;49.966;8.342;2022-10-16T11:00:06;3.83;;;1.80;;
61640;SDS011;62201;49.966;8.342;2022-10-16T11:06:05;3.08;;;1.58;;
61640;SDS011;62201;49.966;8.342;2022-10-16T11:08:35;3.03;;;1.52;;
61640;SDS011;62201;49.966;8.342;2022-10-16T11:11:14;5.05;;;1.92;;
61640;SDS011;62201;49.966;8.342;2022-10-16T11:13:50;4.07;;;1.90;;
61640;SDS011;62201;49.966;8.342;2022-10-16T11:16:27;3.03;;;1.65;;
61640;SDS011;62201;49.966;8.342;2022-10-16T11:18:56;3.03;;;1.55;;
61640;SDS011;62201;49.966;8.342;2022-10-16T11:21:28;8.07;;;1.77;;
61640;SDS011;62201;49.966;8.342;2022-10-16T11:24:04;3.97;;;1.60;;
61640;SDS011;62201;49.966;8.342;2022-10-16T11:26:41;6.97;;;1.98;;
61640;SDS011;62201;49.966;8.342;2022-10-16T11:29:25;3.45;;;1.90;;
61640;SDS011;62201;49.966;8.342;2022-10-16T11:32:00;5.40;;;1.75;;
61640;SDS011;62201;49.966;8.342;2022-10-16T11:34:33;3.50;;;1.80;;
61640;SDS011;62201;49.966;8.342;2022-10-16T11:39:47;6.80;;;1.73;;
61640;SDS011;62201;49.966;8.342;2022-10-16T11:42:27;4.05;;;1.73;;
61640;SDS011;62201;49.966;8.342;2022-10-16T11:45:03;4.60;;;1.50;;
61640;SDS011;62201;49.966;8.342;2022-10-16T11:47:53;2.10;;;1.30;;
61640;SDS011;62201;49.966;8.342;2022-10-16T11:55:39;4.65;;;1.48;;
61640;SDS011;62201;49.966;8.342;2022-10-16T12:03:35;3.53;;;0.90;;
61640;SDS011;62201;49.966;8.342;2022-10-16T12:08:51;4.20;;;0.90;;
61640;SDS011;62201;49.966;8.342;2022-10-16T12:14:03;2.30;;;0.73;;
61640;SDS011;62201;49.966;8.342;2022-10-16T12:16:29;5.78;;;1.10;;
61640;SDS011;62201;49.966;8.342;2022-10-16T12:19:11;2.10;;;0.80;;
61640;SDS011;62201;49.966;8.342;2022-10-16T12:21:41;1.30;;;0.73;;
61640;SDS011;62201;49.966;8.342;2022-10-16T12:24:18;2.85;;;0.93;;
61640;SDS011;62201;49.966;8.342;2022-10-16T12:26:46;2.83;;;0.90;;
61640;SDS011;62201;49.966;8.342;2022-10-16T12:29:14;2.33;;;0.98;;
61640;SDS011;62201;49.966;8.342;2022-10-16T12:31:45;2.05;;;1.23;;
61640;SDS011;62201;49.966;8.342;2022-10-16T12:34:20;2.80;;;0.95;;
61640;SDS011;62201;49.966;8.342;2022-10-16T12:37:15;3.08;;;0.90;;
61640;SDS011;62201;49.966;8.342;2022-10-16T12:39:48;4.97;;;0.90;;
61640;SDS011;62201;49.966;8.342;2022-10-16T12:42:31;2.25;;;0.93;;
61640;SDS011;62201;49.966;8.342;2022-10-16T12:44:59;2.35;;;0.93;;
61640;SDS011;62201;49.966;8.342;2022-10-16T12:49:56;3.67;;;1.03;;
61640;SDS011;62201;49.966;8.342;2022-10-16T12:52:26;2.22;;;0.90;;
61640;SDS011;62201;49.966;8.342;2022-10-16T12:54:55;1.83;;;0.80;;
61640;SDS011;62201;49.966;8.342;2022-10-16T13:05:54;0.95;;;0.70;;
61640;SDS011;62201;49.966;8.342;2022-10-16T13:19:44;3.85;;;1.00;;
61640;SDS011;62201;49.966;8.342;2022-10-16T13:25:05;1.77;;;0.80;;
61640;SDS011;62201;49.966;8.342;2022-10-16T13:27:58;6.47;;;1.40;;
61640;SDS011;62201;49.966;8.342;2022-10-16T13:30:31;1.80;;;1.10;;
61640;SDS011;62201;49.966;8.342;2022-10-16T13:33:19;1.77;;;0.93;;
61640;SDS011;62201;49.966;8.342;2022-10-16T13:35:55;4.50;;;1.20;;
61640;SDS011;62201;49.966;8.342;2022-10-16T13:38:22;4.68;;;1.17;;
61640;SDS011;62201;49.966;8.342;2022-10-16T13:41:04;2.58;;;0.90;;
61640;SDS011;62201;49.966;8.342;2022-10-16T13:46:14;2.65;;;1.00;;
61640;SDS011;62201;49.966;8.342;2022-10-16T13:49:00;1.17;;;1.00;;
61640;SDS011;62201;49.966;8.342;2022-10-16T13:51:26;1.33;;;0.88;;
61640;SDS011;62201;49.966;8.342;2022-10-16T13:53:52;3.05;;;0.93;;
61640;SDS011;62201;49.966;8.342;2022-10-16T13:56:20;3.90;;;0.98;;
61640;SDS011;62201;49.966;8.342;2022-10-16T14:01:34;2.03;;;1.35;;
61640;SDS011;62201;49.966;8.342;2022-10-16T14:04:06;9.13;;;1.77;;
61640;SDS011;62201;49.966;8.342;2022-10-16T14:06:34;2.60;;;1.40;;
61640;SDS011;62201;49.966;8.342;2022-10-16T14:11:30;3.83;;;1.25;;
61640;SDS011;62201;49.966;8.342;2022-10-16T14:13:56;3.03;;;1.05;;
61640;SDS011;62201;49.966;8.342;2022-10-16T14:16:22;2.22;;;1.20;;
61640;SDS011;62201;49.966;8.342;2022-10-16T14:21:26;7.05;;;1.85;;
61640;SDS011;62201;49.966;8.342;2022-10-16T14:23:53;3.70;;;1.90;;
61640;SDS011;62201;49.966;8.342;2022-10-16T14:26:20;3.72;;;2.10;;
61640;SDS011;62201;49.966;8.342;2022-10-16T14:29:01;2.17;;;1.60;;
61640;SDS011;62201;49.966;8.342;2022-10-16T14:31:37;2.47;;;1.50;;
61640;SDS011;62201;49.966;8.342;2022-10-16T14:34:04;5.82;;;1.52;;
61640;SDS011;62201;49.966;8.342;2022-10-16T14:36:30;4.20;;;1.60;;
61640;SDS011;62201;49.966;8.342;2022-10-16T14:41:32;3.83;;;1.35;;
61640;SDS011;62201;49.966;8.342;2022-10-16T14:44:05;2.97;;;1.33;;
61640;SDS011;62201;49.966;8.342;2022-10-16T14:46:34;5.70;;;1.50;;
61640;SDS011;62201;49.966;8.342;2022-10-16T14:49:23;3.25;;;1.60;;
61640;SDS011;62201;49.966;8.342;2022-10-16T14:51:48;4.03;;;1.30;;
61640;SDS011;62201;49.966;8.342;2022-10-16T14:54:15;2.15;;;1.58;;
61640;SDS011;62201;49.966;8.342;2022-10-16T14:56:46;2.35;;;1.60;;
61640;SDS011;62201;49.966;8.342;2022-10-16T14:59:22;3.45;;;1.60;;
61640;SDS011;62201;49.966;8.342;2022-10-16T15:01:52;3.72;;;2.40;;
61640;SDS011;62201;49.966;8.342;2022-10-16T15:04:18;7.68;;;2.40;;
61640;SDS011;62201;49.966;8.342;2022-10-16T15:06:43;3.67;;;1.70;;
61640;SDS011;62201;49.966;8.342;2022-10-16T15:09:09;4.63;;;1.67;;
61640;SDS011;62201;49.966;8.342;2022-10-16T15:11:34;3.05;;;1.75;;
61640;SDS011;62201;49.966;8.342;2022-10-16T15:14:00;6.10;;;1.85;;
61640;SDS011;62201;49.966;8.342;2022-10-16T15:16:26;2.40;;;1.60;;
61640;SDS011;62201;49.966;8.342;2022-10-16T15:18:51;2.88;;;2.00;;
61640;SDS011;62201;49.966;8.342;2022-10-16T15:21:25;3.78;;;1.70;;
61640;SDS011;62201;49.966;8.342;2022-10-16T15:23:53;3.75;;;1.85;;
61640;SDS011;62201;49.966;8.342;2022-10-16T15:26:18;4.60;;;1.88;;
61640;SDS011;62201;49.966;8.342;2022-10-16T15:28:44;2.80;;;1.70;;
61640;SDS011;62201;49.966;8.342;2022-10-16T15:31:09;3.50;;;1.88;;
61640;SDS011;62201;49.966;8.342;2022-10-16T15:33:34;5.32;;;2.10;;
61640;SDS011;62201;49.966;8.342;2022-10-16T15:36:00;3.80;;;1.95;;
61640;SDS011;62201;49.966;8.342;2022-10-16T15:38:27;3.50;;;1.90;;
61640;SDS011;62201;49.966;8.342;2022-10-16T15:40:53;4.47;;;1.80;;
61640;SDS011;62201;49.966;8.342;2022-10-16T15:43:19;5.00;;;2.35;;
61640;SDS011;62201;49.966;8.342;2022-10-16T15:45:47;3.40;;;2.03;;
61640;SDS011;62201;49.966;8.342;2022-10-16T15:48:25;4.85;;;2.15;;
61640;SDS011;62201;49.966;8.342;2022-10-16T15:50:50;6.45;;;1.80;;
61640;SDS011;62201;49.966;8.342;2022-10-16T15:53:16;5.53;;;2.05;;
61640;SDS011;62201;49.966;8.342;2022-10-16T15:55:41;5.60;;;2.00;;
61640;SDS011;62201;49.966;8.342;2022-10-16T15:58:07;6.38;;;2.70;;
61640;SDS011;62201;49.966;8.342;2022-10-16T16:00:32;5.25;;;3.00;;
61640;SDS011;62201;49.966;8.342;2022-10-16T16:02:58;5.82;;;3.47;;
61640;SDS011;62201;49.966;8.342;2022-10-16T16:05:23;6.60;;;3.58;;
61640;SDS011;62201;49.966;8.342;2022-10-16T16:07:49;6.47;;;3.17;;
61640;SDS011;62201;49.966;8.342;2022-10-16T16:10:15;6.93;;;3.08;;
61640;SDS011;62201;49.966;8.342;2022-10-16T16:12:41;7.28;;;3.45;;
61640;SDS011;62201;49.966;8.342;2022-10-16T16:15:07;12.02;;;5.88;;
61640;SDS011;62201;49.966;8.342;2022-10-16T16:17:34;16.70;;;8.93;;
61640;SDS011;62201;49.966;8.342;2022-10-16T16:20:01;13.77;;;9.00;;
61640;SDS011;62201;49.966;8.342;2022-10-16T16:22:28;7.68;;;3.40;;
61640;SDS011;62201;49.966;8.342;2022-10-16T16:24:54;6.32;;;2.65;;
61640;SDS011;62201;49.966;8.342;2022-10-16T16:27:19;6.47;;;3.00;;
61640;SDS011;62201;49.966;8.342;2022-10-16T16:29:45;9.27;;;2.78;;
61640;SDS011;62201;49.966;8.342;2022-10-16T16:32:11;4.55;;;2.33;;
61640;SDS011;62201;49.966;8.342;2022-10-16T16:34:36;4.35;;;2.33;;
61640;SDS011;62201;49.966;8.342;2022-10-16T16:37:02;7.70;;;2.58;;
61640;SDS011;62201;49.966;8.342;2022-10-16T16:39:27;3.65;;;2.40;;
61640;SDS011;62201;49.966;8.342;2022-10-16T16:41:54;4.90;;;2.40;;
61640;SDS011;62201;49.966;8.342;2022-10-16T16:44:21;5.25;;;2.58;;
61640;SDS011;62201;49.966;8.342;2022-10-16T16:46:46;9.20;;;2.75;;
61640;SDS011;62201;49.966;8.342;2022-10-16T16:49:12;6.57;;;2.55;;
61640;SDS011;62201;49.966;8.342;2022-10-16T16:51:38;5.70;;;3.08;;
61640;SDS011;62201;49.966;8.342;2022-10-16T16:54:04;8.02;;;2.83;;
61640;SDS011;62201;49.966;8.342;2022-10-16T16:56:30;5.75;;;2.70;;
61640;SDS011;62201;49.966;8.342;2022-10-16T16:58:56;6.10;;;3.00;;
61640;SDS011;62201;49.966;8.342;2022-10-16T17:01:23;8.18;;;2.80;;
61640;SDS011;62201;49.966;8.342;2022-10-16T17:03:50;10.45;;;3.00;;
61640;SDS011;62201;49.966;8.342;2022-10-16T17:06:20;5.57;;;3.40;;
61640;SDS011;62201;49.966;8.342;2022-10-16T17:08:48;7.30;;;4.25;;
61640;SDS011;62201;49.966;8.342;2022-10-16T17:11:16;13.25;;;5.30;;
61640;SDS011;62201;49.966;8.342;2022-10-16T17:13:43;9.45;;;4.85;;
61640;SDS011;62201;49.966;8.342;2022-10-16T17:16:08;7.25;;;4.78;;
61640;SDS011;62201;49.966;8.342;2022-10-16T17:18:35;8.05;;;5.45;;
61640;SDS011;62201;49.966;8.342;2022-10-16T17:21:01;7.88;;;4.82;;
61640;SDS011;62201;49.966;8.342;2022-10-16T17:23:29;5.35;;;4.03;;
61640;SDS011;62201;49.966;8.342;2022-10-16T17:25:55;9.98;;;3.75;;
61640;SDS011;62201;49.966;8.342;2022-10-16T17:28:21;5.70;;;3.00;;
61640;SDS011;62201;49.966;8.342;2022-10-16T17:30:46;6.40;;;3.65;;
61640;SDS011;62201;49.966;8.342;2022-10-16T17:33:12;8.13;;;3.63;;
61640;SDS011;62201;49.966;8.342;2022-10-16T17:35:41;4.82;;;3.45;;
61640;SDS011;62201;49.966;8.342;2022-10-16T17:38:10;8.45;;;3.80;;
61640;SDS011;62201;49.966;8.342;2022-10-16T17:40:36;7.40;;;3.88;;
61640;SDS011;62201;49.966;8.342;2022-10-16T17:43:02;11.73;;;4.00;;
61640;SDS011;62201;49.966;8.342;2022-10-16T17:45:28;7.65;;;3.90;;
61640;SDS011;62201;49.966;8.342;2022-10-16T17:47:54;10.48;;;5.22;;
61640;SDS011;62201;49.966;8.342;2022-10-16T17:50:20;10.73;;;4.93;;
61640;SDS011;62201;49.966;8.342;2022-10-16T17:52:46;10.30;;;5.38;;
61640;SDS011;62201;49.966;8.342;2022-10-16T17:55:11;16.13;;;8.80;;
61640;SDS011;62201;49.966;8.342;2022-10-16T17:57:37;16.92;;;7.63;;
61640;SDS011;62201;49.966;8.342;2022-10-16T18:00:04;13.63;;;7.88;;
61640;SDS011;62201;49.966;8.342;2022-10-16T18:02:30;12.45;;;7.60;;
61640;SDS011;62201;49.966;8.342;2022-10-16T18:04:58;12.13;;;7.80;;
61640;SDS011;62201;49.966;8.342;2022-10-16T18:07:24;12.27;;;6.55;;
61640;SDS011;62201;49.966;8.342;2022-10-16T18:09:50;12.30;;;6.70;;
61640;SDS011;62201;49.966;8.342;2022-10-16T18:12:15;11.20;;;6.88;;
61640;SDS011;62201;49.966;8.342;2022-10-16T18:14:41;14.77;;;7.50;;
61640;SDS011;62201;49.966;8.342;2022-10-16T18:17:06;11.77;;;7.50;;